sensor_id;sensor_type;location;lat;lon;timestamp;P1;durP1;ratioP1;P2;durP2;ratioP2
5299;SDS011;70402;42.670;23.258;2023-11-21T00:01:41;8.53;;;5.20;;
5299;SDS011;70402;42.670;23.258;2023-11-21T00:04:07;6.37;;;4.03;;
5299;SDS011;70402;42.670;23.258;2023-11-21T00:06:33;6.17;;;4.13;;
5299;SDS011;70402;42.670;23.258;2023-11-21T00:08:59;9.03;;;5.20;;
5299;SDS011;70402;42.670;23.258;2023-11-21T00:11:25;7.67;;;5.17;;
5299;SDS011;70402;42.670;23.258;2023-11-21T00:13:51;8.13;;;5.37;;
5299;SDS011;70402;42.670;23.258;2023-11-21T00:16:17;10.70;;;5.93;;
5299;SDS011;70402;42.670;23.258;2023-11-21T00:18:43;9.23;;;5.57;;
5299;SDS011;70402;42.670;23.258;2023-11-21T00:21:11;7.60;;;5.20;;
5299;SDS011;70402;42.670;23.258;2023-11-21T00:23:37;8.73;;;5.47;;
5299;SDS011;70402;42.670;23.258;2023-11-21T00:26:03;13.07;;;5.90;;
5299;SDS011;70402;42.670;23.258;2023-11-21T00:28:29;8.77;;;5.93;;
5299;SDS011;70402;42.670;23.258;2023-11-21T00:30:55;12.57;;;7.40;;
5299;SDS011;70402;42.670;23.258;2023-11-21T00:33:21;13.37;;;4.80;;
5299;SDS011;70402;42.670;23.258;2023-11-21T00:35:47;8.30;;;4.83;;
5299;SDS011;70402;42.670;23.258;2023-11-21T00:38:12;5.77;;;4.60;;
5299;SDS011;70402;42.670;23.258;2023-11-21T00:40:38;11.10;;;4.43;;
5299;SDS011;70402;42.670;23.258;2023-11-21T00:43:04;9.70;;;5.40;;
5299;SDS011;70402;42.670;23.258;2023-11-21T00:45:30;10.43;;;4.63;;
5299;SDS011;70402;42.670;23.258;2023-11-21T00:47:56;6.90;;;4.60;;
5299;SDS011;70402;42.670;23.258;2023-11-21T00:50:23;10.40;;;6.03;;
5299;SDS011;70402;42.670;23.258;2023-11-21T00:52:49;8.13;;;5.07;;
5299;SDS011;70402;42.670;23.258;2023-11-21T00:55:16;6.50;;;4.47;;
5299;SDS011;70402;42.670;23.258;2023-11-21T00:57:43;8.20;;;4.20;;
5299;SDS011;70402;42.670;23.258;2023-11-21T01:00:09;7.60;;;4.37;;
5299;SDS011;70402;42.670;23.258;2023-11-21T01:02:44;7.60;;;4.40;;
5299;SDS011;70402;42.670;23.258;2023-11-21T01:05:10;9.57;;;4.90;;
5299;SDS011;70402;42.670;23.258;2023-11-21T01:07:39;7.50;;;5.00;;
5299;SDS011;70402;42.670;23.258;2023-11-21T01:10:05;5.17;;;3.93;;
5299;SDS011;70402;42.670;23.258;2023-11-21T01:12:33;12.37;;;4.90;;
5299;SDS011;70402;42.670;23.258;2023-11-21T01:15:00;6.60;;;4.57;;
5299;SDS011;70402;42.670;23.258;2023-11-21T01:17:26;10.40;;;5.10;;
5299;SDS011;70402;42.670;23.258;2023-11-21T01:19:52;14.13;;;6.03;;
5299;SDS011;70402;42.670;23.258;2023-11-21T01:22:18;14.70;;;5.67;;
5299;SDS011;70402;42.670;23.258;2023-11-21T01:24:50;6.87;;;4.60;;
5299;SDS011;70402;42.670;23.258;2023-11-21T01:27:16;7.10;;;4.23;;
5299;SDS011;70402;42.670;23.258;2023-11-21T01:29:42;8.13;;;4.30;;
5299;SDS011;70402;42.670;23.258;2023-11-21T01:32:08;6.40;;;3.30;;
5299;SDS011;70402;42.670;23.258;2023-11-21T01:34:35;5.73;;;3.83;;
5299;SDS011;70402;42.670;23.258;2023-11-21T01:37:00;7.47;;;3.77;;
5299;SDS011;70402;42.670;23.258;2023-11-21T01:39:29;4.93;;;3.50;;
5299;SDS011;70402;42.670;23.258;2023-11-21T01:41:55;7.90;;;4.70;;
5299;SDS011;70402;42.670;23.258;2023-11-21T01:44:23;5.27;;;3.10;;
5299;SDS011;70402;42.670;23.258;2023-11-21T01:46:50;5.65;;;3.13;;
5299;SDS011;70402;42.670;23.258;2023-11-21T01:49:16;3.30;;;3.00;;
5299;SDS011;70402;42.670;23.258;2023-11-21T01:51:44;5.60;;;3.40;;
5299;SDS011;70402;42.670;23.258;2023-11-21T01:54:14;6.20;;;4.25;;
5299;SDS011;70402;42.670;23.258;2023-11-21T01:56:42;7.45;;;4.88;;
5299;SDS011;70402;42.670;23.258;2023-11-21T01:59:10;12.73;;;7.10;;
5299;SDS011;70402;42.670;23.258;2023-11-21T02:01:36;13.53;;;5.40;;
5299;SDS011;70402;42.670;23.258;2023-11-21T02:04:02;8.53;;;5.10;;
5299;SDS011;70402;42.670;23.258;2023-11-21T02:06:28;9.57;;;5.23;;
5299;SDS011;70402;42.670;23.258;2023-11-21T02:08:56;9.60;;;5.10;;
5299;SDS011;70402;42.670;23.258;2023-11-21T02:11:22;7.67;;;4.40;;
5299;SDS011;70402;42.670;23.258;2023-11-21T02:13:49;6.32;;;4.20;;
5299;SDS011;70402;42.670;23.258;2023-11-21T02:16:15;10.23;;;4.80;;
5299;SDS011;70402;42.670;23.258;2023-11-21T02:18:41;8.37;;;4.00;;
5299;SDS011;70402;42.670;23.258;2023-11-21T02:21:07;12.20;;;4.70;;
5299;SDS011;70402;42.670;23.258;2023-11-21T02:23:35;7.53;;;4.10;;
5299;SDS011;70402;42.670;23.258;2023-11-21T02:26:01;10.63;;;5.03;;
5299;SDS011;70402;42.670;23.258;2023-11-21T02:28:29;12.85;;;6.47;;
5299;SDS011;70402;42.670;23.258;2023-11-21T02:30:55;24.13;;;7.30;;
5299;SDS011;70402;42.670;23.258;2023-11-21T02:33:23;29.00;;;11.77;;
5299;SDS011;70402;42.670;23.258;2023-11-21T02:35:48;22.10;;;9.10;;
5299;SDS011;70402;42.670;23.258;2023-11-21T02:38:14;22.13;;;10.10;;
5299;SDS011;70402;42.670;23.258;2023-11-21T02:40:41;25.77;;;10.03;;
5299;SDS011;70402;42.670;23.258;2023-11-21T02:43:08;29.27;;;10.38;;
5299;SDS011;70402;42.670;23.258;2023-11-21T02:45:34;12.13;;;7.13;;
5299;SDS011;70402;42.670;23.258;2023-11-21T02:47:59;14.93;;;6.30;;
5299;SDS011;70402;42.670;23.258;2023-11-21T02:50:25;9.77;;;5.30;;
5299;SDS011;70402;42.670;23.258;2023-11-21T02:52:52;4.85;;;3.53;;
5299;SDS011;70402;42.670;23.258;2023-11-21T02:55:18;12.10;;;5.00;;
5299;SDS011;70402;42.670;23.258;2023-11-21T02:57:44;7.40;;;4.50;;
5299;SDS011;70402;42.670;23.258;2023-11-21T03:00:09;7.47;;;4.37;;
5299;SDS011;70402;42.670;23.258;2023-11-21T03:02:38;7.38;;;4.55;;
5299;SDS011;70402;42.670;23.258;2023-11-21T03:05:04;8.80;;;4.93;;
5299;SDS011;70402;42.670;23.258;2023-11-21T03:07:30;6.20;;;3.78;;
5299;SDS011;70402;42.670;23.258;2023-11-21T03:09:56;5.87;;;3.60;;
5299;SDS011;70402;42.670;23.258;2023-11-21T03:12:22;6.53;;;4.22;;
5299;SDS011;70402;42.670;23.258;2023-11-21T03:14:48;5.83;;;4.10;;
5299;SDS011;70402;42.670;23.258;2023-11-21T03:17:14;3.43;;;3.00;;
5299;SDS011;70402;42.670;23.258;2023-11-21T03:19:41;7.10;;;4.33;;
5299;SDS011;70402;42.670;23.258;2023-11-21T03:22:07;3.75;;;2.75;;
5299;SDS011;70402;42.670;23.258;2023-11-21T03:24:33;3.72;;;3.08;;
5299;SDS011;70402;42.670;23.258;2023-11-21T03:26:59;4.45;;;3.53;;
5299;SDS011;70402;42.670;23.258;2023-11-21T03:29:25;4.60;;;3.50;;
5299;SDS011;70402;42.670;23.258;2023-11-21T03:31:51;5.40;;;3.60;;
5299;SDS011;70402;42.670;23.258;2023-11-21T03:34:26;6.87;;;3.70;;
5299;SDS011;70402;42.670;23.258;2023-11-21T03:36:52;4.97;;;3.27;;
5299;SDS011;70402;42.670;23.258;2023-11-21T03:39:19;6.43;;;2.77;;
5299;SDS011;70402;42.670;23.258;2023-11-21T03:41:46;5.93;;;4.03;;
5299;SDS011;70402;42.670;23.258;2023-11-21T03:44:12;6.13;;;4.23;;
5299;SDS011;70402;42.670;23.258;2023-11-21T03:46:38;6.97;;;4.88;;
5299;SDS011;70402;42.670;23.258;2023-11-21T03:49:04;15.20;;;6.70;;
5299;SDS011;70402;42.670;23.258;2023-11-21T03:51:30;10.97;;;5.10;;
5299;SDS011;70402;42.670;23.258;2023-11-21T03:53:56;6.20;;;4.60;;
5299;SDS011;70402;42.670;23.258;2023-11-21T03:56:21;5.97;;;4.77;;
5299;SDS011;70402;42.670;23.258;2023-11-21T03:58:47;7.73;;;4.70;;
5299;SDS011;70402;42.670;23.258;2023-11-21T04:01:20;5.97;;;4.00;;
5299;SDS011;70402;42.670;23.258;2023-11-21T04:03:49;7.25;;;4.53;;
5299;SDS011;70402;42.670;23.258;2023-11-21T04:06:19;7.65;;;5.20;;
5299;SDS011;70402;42.670;23.258;2023-11-21T04:08:45;10.60;;;5.83;;
5299;SDS011;70402;42.670;23.258;2023-11-21T04:11:11;12.07;;;7.20;;
5299;SDS011;70402;42.670;23.258;2023-11-21T04:13:37;7.60;;;4.88;;
5299;SDS011;70402;42.670;23.258;2023-11-21T04:16:07;8.85;;;5.07;;
5299;SDS011;70402;42.670;23.258;2023-11-21T04:18:35;11.45;;;6.35;;
5299;SDS011;70402;42.670;23.258;2023-11-21T04:21:01;7.90;;;4.57;;
5299;SDS011;70402;42.670;23.258;2023-11-21T04:23:28;7.60;;;4.77;;
5299;SDS011;70402;42.670;23.258;2023-11-21T04:25:56;12.23;;;7.10;;
5299;SDS011;70402;42.670;23.258;2023-11-21T04:28:25;12.57;;;6.20;;
5299;SDS011;70402;42.670;23.258;2023-11-21T04:30:51;6.43;;;4.90;;
5299;SDS011;70402;42.670;23.258;2023-11-21T04:33:17;7.93;;;5.40;;
5299;SDS011;70402;42.670;23.258;2023-11-21T04:35:43;7.30;;;5.67;;
5299;SDS011;70402;42.670;23.258;2023-11-21T04:38:09;10.40;;;5.70;;
5299;SDS011;70402;42.670;23.258;2023-11-21T04:40:34;18.60;;;7.00;;
5299;SDS011;70402;42.670;23.258;2023-11-21T04:43:00;23.83;;;8.80;;
5299;SDS011;70402;42.670;23.258;2023-11-21T04:45:27;9.23;;;6.20;;
5299;SDS011;70402;42.670;23.258;2023-11-21T04:47:52;30.53;;;9.43;;
5299;SDS011;70402;42.670;23.258;2023-11-21T04:50:18;14.67;;;9.00;;
5299;SDS011;70402;42.670;23.258;2023-11-21T04:52:45;12.63;;;5.40;;
5299;SDS011;70402;42.670;23.258;2023-11-21T04:55:11;8.37;;;6.13;;
5299;SDS011;70402;42.670;23.258;2023-11-21T04:57:36;11.70;;;6.53;;
5299;SDS011;70402;42.670;23.258;2023-11-21T05:00:03;11.27;;;6.70;;
5299;SDS011;70402;42.670;23.258;2023-11-21T05:02:31;14.27;;;8.30;;
5299;SDS011;70402;42.670;23.258;2023-11-21T05:04:59;14.05;;;8.68;;
5299;SDS011;70402;42.670;23.258;2023-11-21T05:07:25;10.27;;;7.05;;
5299;SDS011;70402;42.670;23.258;2023-11-21T05:09:54;11.63;;;7.50;;
5299;SDS011;70402;42.670;23.258;2023-11-21T05:12:21;14.20;;;8.00;;
5299;SDS011;70402;42.670;23.258;2023-11-21T05:14:48;12.93;;;8.00;;
5299;SDS011;70402;42.670;23.258;2023-11-21T05:17:15;11.37;;;7.00;;
5299;SDS011;70402;42.670;23.258;2023-11-21T05:19:40;12.73;;;5.57;;
5299;SDS011;70402;42.670;23.258;2023-11-21T05:22:06;6.80;;;4.97;;
5299;SDS011;70402;42.670;23.258;2023-11-21T05:24:33;11.90;;;6.00;;
5299;SDS011;70402;42.670;23.258;2023-11-21T05:27:00;15.48;;;7.13;;
5299;SDS011;70402;42.670;23.258;2023-11-21T05:29:26;12.73;;;7.78;;
5299;SDS011;70402;42.670;23.258;2023-11-21T05:31:52;10.80;;;6.17;;
5299;SDS011;70402;42.670;23.258;2023-11-21T05:34:18;13.37;;;7.00;;
5299;SDS011;70402;42.670;23.258;2023-11-21T05:36:45;13.05;;;6.05;;
5299;SDS011;70402;42.670;23.258;2023-11-21T05:39:11;27.40;;;5.97;;
5299;SDS011;70402;42.670;23.258;2023-11-21T05:41:38;10.85;;;6.43;;
5299;SDS011;70402;42.670;23.258;2023-11-21T05:44:04;15.80;;;8.63;;
5299;SDS011;70402;42.670;23.258;2023-11-21T05:46:30;13.95;;;8.63;;
5299;SDS011;70402;42.670;23.258;2023-11-21T05:48:56;16.37;;;9.60;;
5299;SDS011;70402;42.670;23.258;2023-11-21T05:51:22;11.77;;;8.27;;
5299;SDS011;70402;42.670;23.258;2023-11-21T05:53:50;12.37;;;7.13;;
5299;SDS011;70402;42.670;23.258;2023-11-21T05:56:15;19.57;;;9.00;;
5299;SDS011;70402;42.670;23.258;2023-11-21T05:58:43;23.17;;;10.53;;
5299;SDS011;70402;42.670;23.258;2023-11-21T06:01:09;24.97;;;13.60;;
5299;SDS011;70402;42.670;23.258;2023-11-21T06:03:38;22.38;;;10.88;;
5299;SDS011;70402;42.670;23.258;2023-11-21T06:06:04;30.50;;;16.08;;
5299;SDS011;70402;42.670;23.258;2023-11-21T06:08:30;19.83;;;10.60;;
5299;SDS011;70402;42.670;23.258;2023-11-21T06:10:56;20.53;;;11.70;;
5299;SDS011;70402;42.670;23.258;2023-11-21T06:13:22;20.97;;;11.03;;
5299;SDS011;70402;42.670;23.258;2023-11-21T06:15:52;21.93;;;13.27;;
5299;SDS011;70402;42.670;23.258;2023-11-21T06:18:18;21.93;;;12.07;;
5299;SDS011;70402;42.670;23.258;2023-11-21T06:20:45;20.13;;;12.70;;
5299;SDS011;70402;42.670;23.258;2023-11-21T06:23:11;21.77;;;12.70;;
5299;SDS011;70402;42.670;23.258;2023-11-21T06:25:37;21.87;;;12.93;;
5299;SDS011;70402;42.670;23.258;2023-11-21T06:28:04;34.43;;;13.27;;
5299;SDS011;70402;42.670;23.258;2023-11-21T06:30:30;21.00;;;13.30;;
5299;SDS011;70402;42.670;23.258;2023-11-21T06:32:56;19.40;;;11.97;;
5299;SDS011;70402;42.670;23.258;2023-11-21T06:35:22;20.40;;;12.60;;
5299;SDS011;70402;42.670;23.258;2023-11-21T06:37:48;24.73;;;13.80;;
5299;SDS011;70402;42.670;23.258;2023-11-21T06:40:14;23.80;;;12.80;;
5299;SDS011;70402;42.670;23.258;2023-11-21T06:42:40;22.17;;;12.37;;
5299;SDS011;70402;42.670;23.258;2023-11-21T06:45:07;22.10;;;13.13;;
5299;SDS011;70402;42.670;23.258;2023-11-21T06:47:36;23.27;;;12.20;;
5299;SDS011;70402;42.670;23.258;2023-11-21T06:50:03;22.80;;;11.80;;
5299;SDS011;70402;42.670;23.258;2023-11-21T06:52:29;17.93;;;11.10;;
5299;SDS011;70402;42.670;23.258;2023-11-21T06:54:55;25.27;;;13.33;;
5299;SDS011;70402;42.670;23.258;2023-11-21T06:57:22;25.00;;;13.13;;
5299;SDS011;70402;42.670;23.258;2023-11-21T06:59:48;22.57;;;12.23;;
5299;SDS011;70402;42.670;23.258;2023-11-21T07:02:15;18.07;;;11.30;;
5299;SDS011;70402;42.670;23.258;2023-11-21T07:04:47;25.47;;;12.63;;
5299;SDS011;70402;42.670;23.258;2023-11-21T07:07:13;28.23;;;11.70;;
5299;SDS011;70402;42.670;23.258;2023-11-21T07:09:39;17.80;;;11.00;;
5299;SDS011;70402;42.670;23.258;2023-11-21T07:12:05;22.37;;;12.47;;
5299;SDS011;70402;42.670;23.258;2023-11-21T07:14:35;26.30;;;15.80;;
5299;SDS011;70402;42.670;23.258;2023-11-21T07:17:02;23.83;;;13.90;;
5299;SDS011;70402;42.670;23.258;2023-11-21T07:19:28;22.00;;;12.93;;
5299;SDS011;70402;42.670;23.258;2023-11-21T07:21:55;25.07;;;13.57;;
5299;SDS011;70402;42.670;23.258;2023-11-21T07:24:21;25.70;;;13.27;;
5299;SDS011;70402;42.670;23.258;2023-11-21T07:26:50;20.93;;;12.70;;
5299;SDS011;70402;42.670;23.258;2023-11-21T07:29:16;24.33;;;14.03;;
5299;SDS011;70402;42.670;23.258;2023-11-21T07:31:42;24.57;;;13.33;;
5299;SDS011;70402;42.670;23.258;2023-11-21T07:34:08;22.47;;;12.87;;
5299;SDS011;70402;42.670;23.258;2023-11-21T07:36:34;23.00;;;12.50;;
5299;SDS011;70402;42.670;23.258;2023-11-21T07:38:59;20.77;;;13.43;;
5299;SDS011;70402;42.670;23.258;2023-11-21T07:41:27;18.97;;;11.30;;
5299;SDS011;70402;42.670;23.258;2023-11-21T07:43:54;21.13;;;12.43;;
5299;SDS011;70402;42.670;23.258;2023-11-21T07:46:21;24.73;;;13.70;;
5299;SDS011;70402;42.670;23.258;2023-11-21T07:48:47;27.10;;;14.70;;
5299;SDS011;70402;42.670;23.258;2023-11-21T07:51:13;21.47;;;13.27;;
5299;SDS011;70402;42.670;23.258;2023-11-21T07:53:39;24.90;;;14.70;;
5299;SDS011;70402;42.670;23.258;2023-11-21T07:56:05;27.10;;;14.63;;
5299;SDS011;70402;42.670;23.258;2023-11-21T07:58:35;27.60;;;15.83;;
5299;SDS011;70402;42.670;23.258;2023-11-21T08:01:02;32.83;;;15.40;;
5299;SDS011;70402;42.670;23.258;2023-11-21T08:03:28;31.17;;;16.37;;
5299;SDS011;70402;42.670;23.258;2023-11-21T08:05:55;27.50;;;16.17;;
5299;SDS011;70402;42.670;23.258;2023-11-21T08:08:24;30.60;;;16.70;;
5299;SDS011;70402;42.670;23.258;2023-11-21T08:10:51;30.83;;;15.67;;
5299;SDS011;70402;42.670;23.258;2023-11-21T08:13:27;27.40;;;14.60;;
5299;SDS011;70402;42.670;23.258;2023-11-21T08:15:54;31.73;;;15.57;;
5299;SDS011;70402;42.670;23.258;2023-11-21T08:18:21;25.43;;;15.50;;
5299;SDS011;70402;42.670;23.258;2023-11-21T08:20:47;27.77;;;14.43;;
5299;SDS011;70402;42.670;23.258;2023-11-21T08:23:16;33.37;;;17.10;;
5299;SDS011;70402;42.670;23.258;2023-11-21T08:25:45;26.47;;;15.07;;
5299;SDS011;70402;42.670;23.258;2023-11-21T08:28:12;24.80;;;14.40;;
5299;SDS011;70402;42.670;23.258;2023-11-21T08:30:41;26.30;;;15.87;;
5299;SDS011;70402;42.670;23.258;2023-11-21T08:33:07;23.37;;;13.70;;
5299;SDS011;70402;42.670;23.258;2023-11-21T08:35:34;23.63;;;15.20;;
5299;SDS011;70402;42.670;23.258;2023-11-21T08:38:01;24.37;;;14.07;;
5299;SDS011;70402;42.670;23.258;2023-11-21T08:40:28;27.03;;;13.87;;
5299;SDS011;70402;42.670;23.258;2023-11-21T08:42:54;34.07;;;15.87;;
5299;SDS011;70402;42.670;23.258;2023-11-21T08:45:20;28.57;;;15.60;;
5299;SDS011;70402;42.670;23.258;2023-11-21T08:47:47;28.00;;;14.93;;
5299;SDS011;70402;42.670;23.258;2023-11-21T08:50:13;29.67;;;15.60;;
5299;SDS011;70402;42.670;23.258;2023-11-21T08:52:40;26.60;;;15.60;;
5299;SDS011;70402;42.670;23.258;2023-11-21T08:55:10;29.07;;;15.97;;
5299;SDS011;70402;42.670;23.258;2023-11-21T08:57:40;20.67;;;13.70;;
5299;SDS011;70402;42.670;23.258;2023-11-21T09:00:10;28.00;;;15.00;;
5299;SDS011;70402;42.670;23.258;2023-11-21T09:02:42;33.53;;;15.47;;
5299;SDS011;70402;42.670;23.258;2023-11-21T09:05:12;35.27;;;15.47;;
5299;SDS011;70402;42.670;23.258;2023-11-21T09:07:42;27.03;;;14.07;;
5299;SDS011;70402;42.670;23.258;2023-11-21T09:10:08;23.37;;;13.57;;
5299;SDS011;70402;42.670;23.258;2023-11-21T09:12:35;22.97;;;12.80;;
5299;SDS011;70402;42.670;23.258;2023-11-21T09:15:03;20.57;;;12.33;;
5299;SDS011;70402;42.670;23.258;2023-11-21T09:17:30;27.40;;;13.13;;
5299;SDS011;70402;42.670;23.258;2023-11-21T09:19:57;51.60;;;14.23;;
5299;SDS011;70402;42.670;23.258;2023-11-21T09:22:23;19.60;;;12.60;;
5299;SDS011;70402;42.670;23.258;2023-11-21T09:24:50;22.73;;;11.63;;
5299;SDS011;70402;42.670;23.258;2023-11-21T09:27:17;18.90;;;10.67;;
5299;SDS011;70402;42.670;23.258;2023-11-21T09:29:47;17.70;;;11.17;;
5299;SDS011;70402;42.670;23.258;2023-11-21T09:32:14;25.53;;;11.30;;
5299;SDS011;70402;42.670;23.258;2023-11-21T09:34:41;22.17;;;12.93;;
5299;SDS011;70402;42.670;23.258;2023-11-21T09:37:07;23.73;;;13.17;;
5299;SDS011;70402;42.670;23.258;2023-11-21T09:39:34;24.93;;;14.43;;
5299;SDS011;70402;42.670;23.258;2023-11-21T09:42:04;22.90;;;13.80;;
5299;SDS011;70402;42.670;23.258;2023-11-21T09:44:36;21.00;;;11.33;;
5299;SDS011;70402;42.670;23.258;2023-11-21T09:47:07;26.47;;;12.07;;
5299;SDS011;70402;42.670;23.258;2023-11-21T09:49:35;20.80;;;11.20;;
5299;SDS011;70402;42.670;23.258;2023-11-21T09:52:03;21.33;;;11.50;;
5299;SDS011;70402;42.670;23.258;2023-11-21T09:54:31;20.13;;;11.07;;
5299;SDS011;70402;42.670;23.258;2023-11-21T09:57:00;14.43;;;8.80;;
5299;SDS011;70402;42.670;23.258;2023-11-21T09:59:27;15.80;;;9.07;;
5299;SDS011;70402;42.670;23.258;2023-11-21T10:01:57;14.87;;;9.30;;
5299;SDS011;70402;42.670;23.258;2023-11-21T10:04:24;16.90;;;8.37;;
5299;SDS011;70402;42.670;23.258;2023-11-21T10:06:50;11.73;;;6.93;;
5299;SDS011;70402;42.670;23.258;2023-11-21T10:09:17;13.73;;;7.97;;
5299;SDS011;70402;42.670;23.258;2023-11-21T10:11:45;22.70;;;8.70;;
5299;SDS011;70402;42.670;23.258;2023-11-21T10:14:13;16.63;;;8.27;;
5299;SDS011;70402;42.670;23.258;2023-11-21T10:16:41;25.13;;;8.90;;
5299;SDS011;70402;42.670;23.258;2023-11-21T10:19:09;13.47;;;7.90;;
5299;SDS011;70402;42.670;23.258;2023-11-21T10:21:37;15.10;;;7.90;;
5299;SDS011;70402;42.670;23.258;2023-11-21T10:24:05;15.70;;;8.40;;
5299;SDS011;70402;42.670;23.258;2023-11-21T10:26:31;11.80;;;8.73;;
5299;SDS011;70402;42.670;23.258;2023-11-21T10:28:58;16.37;;;9.40;;
5299;SDS011;70402;42.670;23.258;2023-11-21T10:31:27;16.27;;;9.80;;
5299;SDS011;70402;42.670;23.258;2023-11-21T10:33:56;15.00;;;8.47;;
5299;SDS011;70402;42.670;23.258;2023-11-21T10:36:27;12.47;;;7.97;;
5299;SDS011;70402;42.670;23.258;2023-11-21T10:38:53;16.97;;;10.40;;
5299;SDS011;70402;42.670;23.258;2023-11-21T10:41:20;26.37;;;11.90;;
5299;SDS011;70402;42.670;23.258;2023-11-21T10:43:46;18.20;;;10.77;;
5299;SDS011;70402;42.670;23.258;2023-11-21T10:46:14;23.40;;;10.90;;
5299;SDS011;70402;42.670;23.258;2023-11-21T10:48:41;29.43;;;11.60;;
5299;SDS011;70402;42.670;23.258;2023-11-21T10:51:08;22.83;;;11.97;;
5299;SDS011;70402;42.670;23.258;2023-11-21T10:53:40;26.93;;;12.00;;
5299;SDS011;70402;42.670;23.258;2023-11-21T10:56:10;22.60;;;12.03;;
5299;SDS011;70402;42.670;23.258;2023-11-21T10:58:43;20.40;;;12.50;;
5299;SDS011;70402;42.670;23.258;2023-11-21T11:01:09;24.43;;;11.03;;
5299;SDS011;70402;42.670;23.258;2023-11-21T11:03:39;18.00;;;10.73;;
5299;SDS011;70402;42.670;23.258;2023-11-21T11:06:07;21.03;;;10.90;;
5299;SDS011;70402;42.670;23.258;2023-11-21T11:08:39;18.23;;;11.73;;
5299;SDS011;70402;42.670;23.258;2023-11-21T11:11:06;22.93;;;11.57;;
5299;SDS011;70402;42.670;23.258;2023-11-21T11:13:32;27.60;;;11.87;;
5299;SDS011;70402;42.670;23.258;2023-11-21T11:15:59;22.03;;;11.27;;
5299;SDS011;70402;42.670;23.258;2023-11-21T11:18:27;21.27;;;11.30;;
5299;SDS011;70402;42.670;23.258;2023-11-21T11:20:54;16.57;;;11.17;;
5299;SDS011;70402;42.670;23.258;2023-11-21T11:26:04;23.53;;;11.27;;
5299;SDS011;70402;42.670;23.258;2023-11-21T11:28:38;23.87;;;11.30;;
5299;SDS011;70402;42.670;23.258;2023-11-21T11:36:29;18.40;;;12.30;;
5299;SDS011;70402;42.670;23.258;2023-11-21T11:38:55;22.17;;;12.40;;
5299;SDS011;70402;42.670;23.258;2023-11-21T11:41:25;17.97;;;10.80;;
5299;SDS011;70402;42.670;23.258;2023-11-21T11:43:52;18.50;;;10.97;;
5299;SDS011;70402;42.670;23.258;2023-11-21T11:46:19;20.77;;;11.70;;
5299;SDS011;70402;42.670;23.258;2023-11-21T11:48:48;21.20;;;11.63;;
5299;SDS011;70402;42.670;23.258;2023-11-21T11:51:15;20.67;;;11.80;;
5299;SDS011;70402;42.670;23.258;2023-11-21T11:53:49;20.20;;;11.37;;
5299;SDS011;70402;42.670;23.258;2023-11-21T11:56:21;20.13;;;11.77;;
5299;SDS011;70402;42.670;23.258;2023-11-21T11:58:48;33.53;;;16.27;;
5299;SDS011;70402;42.670;23.258;2023-11-21T12:01:21;26.67;;;17.07;;
5299;SDS011;70402;42.670;23.258;2023-11-21T12:06:35;31.43;;;18.40;;
5299;SDS011;70402;42.670;23.258;2023-11-21T12:09:01;31.33;;;18.40;;
5299;SDS011;70402;42.670;23.258;2023-11-21T12:11:31;33.10;;;15.47;;
5299;SDS011;70402;42.670;23.258;2023-11-21T12:13:58;25.47;;;14.00;;
5299;SDS011;70402;42.670;23.258;2023-11-21T12:16:25;29.57;;;13.73;;
5299;SDS011;70402;42.670;23.258;2023-11-21T12:18:54;22.00;;;13.70;;
5299;SDS011;70402;42.670;23.258;2023-11-21T12:21:20;29.73;;;13.30;;
5299;SDS011;70402;42.670;23.258;2023-11-21T12:23:48;23.83;;;13.57;;
5299;SDS011;70402;42.670;23.258;2023-11-21T12:26:14;21.70;;;12.83;;
5299;SDS011;70402;42.670;23.258;2023-11-21T12:28:40;20.87;;;12.73;;
5299;SDS011;70402;42.670;23.258;2023-11-21T12:31:06;23.87;;;13.00;;
5299;SDS011;70402;42.670;23.258;2023-11-21T12:33:33;23.17;;;13.63;;
5299;SDS011;70402;42.670;23.258;2023-11-21T12:36:00;21.20;;;13.57;;
5299;SDS011;70402;42.670;23.258;2023-11-21T12:38:33;25.07;;;13.93;;
5299;SDS011;70402;42.670;23.258;2023-11-21T12:41:02;21.73;;;11.53;;
5299;SDS011;70402;42.670;23.258;2023-11-21T12:43:29;21.63;;;13.23;;
5299;SDS011;70402;42.670;23.258;2023-11-21T12:46:08;22.80;;;12.57;;
5299;SDS011;70402;42.670;23.258;2023-11-21T12:48:37;17.80;;;12.03;;
5299;SDS011;70402;42.670;23.258;2023-11-21T12:51:13;22.30;;;12.97;;
5299;SDS011;70402;42.670;23.258;2023-11-21T12:53:41;19.97;;;12.60;;
5299;SDS011;70402;42.670;23.258;2023-11-21T12:58:34;22.87;;;12.37;;
5299;SDS011;70402;42.670;23.258;2023-11-21T13:01:01;21.20;;;12.37;;
5299;SDS011;70402;42.670;23.258;2023-11-21T13:03:30;23.27;;;12.60;;
5299;SDS011;70402;42.670;23.258;2023-11-21T13:05:57;20.10;;;12.80;;
5299;SDS011;70402;42.670;23.258;2023-11-21T13:08:24;18.43;;;11.33;;
5299;SDS011;70402;42.670;23.258;2023-11-21T13:10:52;22.20;;;11.43;;
5299;SDS011;70402;42.670;23.258;2023-11-21T13:13:20;16.87;;;11.00;;
5299;SDS011;70402;42.670;23.258;2023-11-21T13:15:47;18.63;;;10.70;;
5299;SDS011;70402;42.670;23.258;2023-11-21T13:18:14;17.70;;;10.50;;
5299;SDS011;70402;42.670;23.258;2023-11-21T13:20:41;18.63;;;10.30;;
5299;SDS011;70402;42.670;23.258;2023-11-21T13:23:11;16.00;;;9.60;;
5299;SDS011;70402;42.670;23.258;2023-11-21T13:25:38;18.97;;;9.60;;
5299;SDS011;70402;42.670;23.258;2023-11-21T13:28:06;20.10;;;11.43;;
5299;SDS011;70402;42.670;23.258;2023-11-21T13:30:33;20.40;;;10.80;;
5299;SDS011;70402;42.670;23.258;2023-11-21T13:33:00;19.80;;;11.47;;
5299;SDS011;70402;42.670;23.258;2023-11-21T13:35:33;19.00;;;10.43;;
5299;SDS011;70402;42.670;23.258;2023-11-21T13:38:06;18.33;;;11.03;;
5299;SDS011;70402;42.670;23.258;2023-11-21T13:40:32;17.90;;;11.27;;
5299;SDS011;70402;42.670;23.258;2023-11-21T13:43:10;15.87;;;9.93;;
5299;SDS011;70402;42.670;23.258;2023-11-21T13:45:39;20.07;;;11.70;;
5299;SDS011;70402;42.670;23.258;2023-11-21T13:48:07;25.00;;;10.93;;
5299;SDS011;70402;42.670;23.258;2023-11-21T13:50:35;30.20;;;13.00;;
5299;SDS011;70402;42.670;23.258;2023-11-21T13:53:02;20.43;;;12.27;;
5299;SDS011;70402;42.670;23.258;2023-11-21T13:55:55;22.93;;;12.27;;
5299;SDS011;70402;42.670;23.258;2023-11-21T13:58:23;26.17;;;12.47;;
5299;SDS011;70402;42.670;23.258;2023-11-21T14:01:08;25.40;;;13.40;;
5299;SDS011;70402;42.670;23.258;2023-11-21T14:03:54;25.63;;;15.57;;
5299;SDS011;70402;42.670;23.258;2023-11-21T14:06:34;25.57;;;13.10;;
5299;SDS011;70402;42.670;23.258;2023-11-21T14:09:07;27.17;;;14.40;;
5299;SDS011;70402;42.670;23.258;2023-11-21T14:11:34;24.37;;;13.17;;
5299;SDS011;70402;42.670;23.258;2023-11-21T14:14:03;27.67;;;15.03;;
5299;SDS011;70402;42.670;23.258;2023-11-21T14:16:30;29.70;;;15.17;;
5299;SDS011;70402;42.670;23.258;2023-11-21T14:18:57;23.37;;;12.47;;
5299;SDS011;70402;42.670;23.258;2023-11-21T14:21:34;29.00;;;13.47;;
5299;SDS011;70402;42.670;23.258;2023-11-21T14:24:01;25.43;;;13.20;;
5299;SDS011;70402;42.670;23.258;2023-11-21T14:26:28;22.60;;;13.60;;
5299;SDS011;70402;42.670;23.258;2023-11-21T14:28:55;25.87;;;14.07;;
5299;SDS011;70402;42.670;23.258;2023-11-21T14:31:22;28.77;;;15.30;;
5299;SDS011;70402;42.670;23.258;2023-11-21T14:33:49;31.97;;;18.13;;
5299;SDS011;70402;42.670;23.258;2023-11-21T14:36:15;30.40;;;16.70;;
5299;SDS011;70402;42.670;23.258;2023-11-21T14:38:42;35.70;;;16.43;;
5299;SDS011;70402;42.670;23.258;2023-11-21T14:41:08;39.27;;;17.00;;
5299;SDS011;70402;42.670;23.258;2023-11-21T14:43:36;45.00;;;19.90;;
5299;SDS011;70402;42.670;23.258;2023-11-21T14:46:04;44.33;;;20.47;;